createdAt,value
2017-12-05T06:54:40.166Z,4.00
2017-12-05T06:54:40.704Z,4.00
2017-12-05T06:54:41.268Z,4.00
2017-12-05T06:54:41.805Z,4.00
2017-12-05T06:54:42.346Z,4.00
2017-12-05T06:54:42.910Z,4.00
2017-12-05T06:54:43.427Z,4.00
2017-12-05T06:54:43.920Z,4.00
2017-12-05T06:55:38.384Z,4.00
2017-12-05T06:55:38.907Z,0.00
2017-12-05T06:55:39.499Z,0.00
2017-12-05T06:55:40.047Z,0.00
2017-12-05T06:55:40.554Z,4.00
2017-12-05T06:55:41.084Z,4.00
2017-12-05T06:55:41.631Z,4.00
2017-12-05T06:55:42.190Z,4.00
2017-12-05T06:56:36.204Z,12.00
2017-12-05T06:56:36.694Z,12.00
2017-12-05T06:56:37.257Z,16.00
2017-12-05T06:56:37.744Z,12.00
2017-12-05T06:56:38.246Z,12.00
2017-12-05T06:56:38.805Z,16.00
2017-12-05T06:56:39.379Z,16.00
2017-12-05T06:56:39.922Z,16.00
2017-12-05T06:57:33.459Z,16.00
2017-12-05T06:57:34.029Z,16.00
2017-12-05T06:57:34.545Z,16.00
2017-12-05T06:57:35.067Z,16.00
2017-12-05T06:57:35.589Z,16.00
2017-12-05T06:57:36.109Z,16.00
2017-12-05T06:57:36.668Z,16.00
2017-12-05T06:57:37.241Z,16.00
2017-12-05T06:57:37.768Z,16.00
2017-12-05T06:58:32.811Z,16.00
2017-12-05T06:58:33.322Z,16.00
2017-12-05T06:58:33.833Z,16.00
2017-12-05T06:58:34.400Z,16.00
2017-12-05T06:58:34.962Z,16.00
2017-12-05T06:58:35.509Z,16.00
2017-12-05T06:59:29.354Z,16.00
2017-12-05T06:59:29.876Z,16.00
2017-12-05T06:59:30.394Z,16.00
2017-12-05T06:59:30.962Z,16.00
2017-12-05T06:59:31.483Z,16.00
2017-12-05T06:59:32.014Z,16.00
2017-12-05T06:59:32.543Z,16.00
2017-12-05T06:59:33.118Z,16.00
2017-12-05T07:01:18.224Z,20.00
2017-12-05T07:01:18.744Z,20.00
2017-12-05T07:01:19.251Z,20.00
2017-12-05T07:01:19.789Z,20.00
2017-12-05T07:01:20.310Z,20.00
2017-12-05T07:01:20.842Z,20.00
2017-12-05T07:01:21.384Z,20.00
2017-12-05T07:01:21.958Z,20.00
2017-12-05T07:02:15.933Z,16.00
2017-12-05T07:02:16.444Z,16.00
2017-12-05T07:02:16.955Z,20.00
2017-12-05T07:02:17.562Z,20.00
2017-12-05T07:02:18.046Z,20.00
2017-12-05T07:02:18.561Z,16.00
2017-12-05T07:02:19.128Z,16.00
2017-12-05T07:02:19.683Z,16.00
2017-12-05T07:04:04.298Z,20.00
2017-12-05T07:04:04.810Z,20.00
2017-12-05T07:04:05.317Z,20.00
2017-12-05T07:04:05.847Z,20.00
2017-12-05T07:04:06.378Z,20.00
2017-12-05T07:04:06.920Z,24.00
2017-12-05T07:04:07.430Z,20.00
2017-12-05T07:04:08.012Z,20.00
2017-12-05T07:04:08.552Z,20.00
2017-12-05T07:05:02.560Z,20.00
2017-12-05T07:05:03.088Z,20.00
2017-12-05T07:05:03.620Z,20.00
2017-12-05T07:05:04.138Z,20.00
2017-12-05T07:05:04.661Z,20.00
2017-12-05T07:05:05.242Z,20.00
2017-12-05T07:05:05.713Z,20.00
2017-12-05T07:05:06.235Z,20.00
2017-12-05T07:06:00.195Z,20.00
2017-12-05T07:06:00.774Z,20.00
2017-12-05T07:06:01.293Z,20.00
2017-12-05T07:06:01.864Z,20.00
2017-12-05T07:06:02.385Z,20.00
2017-12-05T07:06:02.942Z,20.00
2017-12-05T07:06:03.517Z,20.00
2017-12-05T07:06:04.091Z,20.00
2017-12-05T12:15:03.406Z,1364.00
2017-12-05T12:15:03.863Z,1364.00
2017-12-05T12:15:04.363Z,1364.00
2017-12-05T12:15:04.907Z,1364.00
2017-12-05T12:15:05.397Z,1364.00
2017-12-05T12:15:06.016Z,1364.00
2017-12-05T12:15:06.562Z,1364.00
2017-12-05T12:15:07.108Z,1368.00
2017-12-05T12:15:07.672Z,1368.00
2017-12-05T12:15:08.212Z,1368.00
2017-12-05T12:15:08.755Z,1368.00
2017-12-05T12:15:09.249Z,1372.00
2017-12-05T12:15:09.869Z,1368.00
2017-12-05T12:15:10.396Z,1368.00
2017-12-05T12:15:10.913Z,1372.00
2017-12-05T12:15:11.451Z,1372.00
2017-12-05T12:15:12.371Z,1372.00
2017-12-05T12:15:12.875Z,1376.00
2017-12-05T12:15:13.516Z,1376.00
2017-12-05T12:15:13.844Z,1376.00
2017-12-05T12:15:14.381Z,1380.00
2017-12-05T12:15:14.963Z,1376.00
2017-12-05T12:15:15.510Z,1380.00
2017-12-05T12:15:16.063Z,1376.00
2017-12-05T12:15:16.593Z,1380.00
2017-12-05T12:15:17.197Z,1380.00
2017-12-05T12:15:17.770Z,1380.00
2017-12-05T12:15:18.307Z,1380.00
2017-12-05T12:15:18.822Z,1380.00
2017-12-05T12:15:19.373Z,1380.00
2017-12-05T12:15:19.897Z,1384.00
2017-12-05T12:15:20.459Z,1384.00
2017-12-05T12:15:21.011Z,1384.00
2017-12-05T12:15:21.591Z,1384.00
2017-12-05T12:15:22.137Z,1384.00
2017-12-05T12:15:22.737Z,1384.00
2017-12-05T12:15:23.291Z,1388.00
2017-12-05T12:15:23.991Z,1384.00
2017-12-05T12:15:24.625Z,1388.00
2017-12-05T12:15:25.179Z,1388.00
2017-12-05T12:15:25.681Z,1388.00
2017-12-05T12:15:26.215Z,1388.00
2017-12-05T12:15:26.737Z,1388.00
2017-12-05T12:15:27.270Z,1392.00
2017-12-05T12:15:27.819Z,1392.00
2017-12-05T12:15:28.349Z,1392.00
2017-12-05T12:15:28.871Z,1392.00
2017-12-05T12:15:29.444Z,1392.00
2017-12-05T12:15:29.987Z,1392.00
2017-12-05T12:15:30.513Z,1396.00
2017-12-05T12:15:31.075Z,1392.00
2017-12-05T12:15:31.663Z,1392.00
2017-12-05T12:15:32.207Z,1396.00
2017-12-05T12:15:32.785Z,1396.00
2017-12-05T12:15:33.310Z,1396.00
2017-12-05T12:15:33.831Z,1400.00
2017-12-05T12:15:34.387Z,1400.00
2017-12-05T12:15:35.011Z,1400.00
2017-12-05T12:15:35.579Z,1400.00
2017-12-05T12:15:36.136Z,1404.00
2017-12-05T12:15:36.655Z,1400.00
2017-12-05T12:15:37.189Z,1400.00
2017-12-05T12:15:37.717Z,1404.00
2017-12-05T12:15:38.275Z,1404.00
2017-12-05T12:15:38.799Z,1404.00
2017-12-05T12:15:39.331Z,1404.00
2017-12-05T12:15:39.907Z,1408.00
2017-12-05T12:15:40.549Z,1404.00
2017-12-05T12:15:41.103Z,1408.00
2017-12-05T12:15:41.657Z,1408.00
2017-12-05T12:15:42.128Z,1408.00
2017-12-05T12:15:42.727Z,1408.00
2017-12-05T12:15:43.269Z,1412.00
2017-12-05T12:15:43.832Z,1408.00
2017-12-05T12:15:44.377Z,1408.00
2017-12-05T12:15:44.938Z,1412.00
2017-12-05T12:15:45.505Z,1412.00
2017-12-05T12:15:46.039Z,1412.00
2017-12-05T12:15:46.618Z,1412.00
2017-12-05T12:15:47.143Z,1416.00
2017-12-05T12:15:47.745Z,1416.00
2017-12-05T12:15:48.269Z,1416.00
2017-12-05T12:15:48.832Z,1416.00
2017-12-05T12:15:49.361Z,1416.00
2017-12-05T12:15:49.898Z,1416.00
2017-12-05T12:15:50.469Z,1416.00
2017-12-05T12:15:51.009Z,1420.00
2017-12-05T12:15:51.571Z,1420.00
2017-12-05T12:15:52.149Z,1420.00
2017-12-05T12:15:52.672Z,1420.00
2017-12-05T12:15:53.230Z,1420.00
2017-12-05T12:15:53.801Z,1420.00
2017-12-05T12:15:54.347Z,1420.00
2017-12-05T12:15:54.866Z,1424.00
2017-12-05T12:15:55.387Z,1420.00
2017-12-05T12:15:55.918Z,1424.00
2017-12-05T12:15:56.447Z,1424.00
2017-12-05T12:15:57.013Z,1424.00
2017-12-05T12:15:57.547Z,1424.00
2017-12-05T12:15:58.136Z,1424.00
2017-12-05T12:15:58.698Z,1424.00
2017-12-05T12:15:59.223Z,1428.00
2017-12-05T12:15:59.771Z,1428.00
2017-12-05T12:16:00.289Z,1428.00
2017-12-05T12:16:00.864Z,1432.00
2017-12-05T12:16:01.422Z,1432.00
2017-12-05T12:16:01.963Z,1432.00
2017-12-05T12:16:02.562Z,1432.00
2017-12-05T12:16:03.085Z,1436.00
2017-12-05T12:16:03.678Z,1436.00
2017-12-05T12:16:04.208Z,1436.00
2017-12-05T12:16:04.737Z,1440.00
2017-12-05T12:16:05.305Z,1436.00
2017-12-05T12:16:05.835Z,1436.00
2017-12-05T12:16:06.387Z,1440.00
2017-12-05T12:16:06.989Z,1440.00
2017-12-05T12:16:07.496Z,1440.00
2017-12-05T12:16:08.051Z,1436.00
2017-12-05T12:16:08.581Z,1424.00
2017-12-05T12:16:09.160Z,1396.00
2017-12-05T12:16:09.677Z,1312.00
2017-12-05T12:16:10.207Z,1176.00
2017-12-05T12:16:10.788Z,1156.00
2017-12-05T12:16:11.315Z,1160.00
2017-12-05T12:16:11.913Z,1160.00
2017-12-05T12:16:12.437Z,1272.00
2017-12-05T12:16:12.957Z,1344.00
2017-12-05T12:16:13.497Z,1348.00
2017-12-05T12:16:14.049Z,1364.00
2017-12-05T12:16:14.613Z,1368.00
2017-12-05T12:16:15.180Z,1364.00
2017-12-05T12:16:15.705Z,1368.00
2017-12-05T12:16:16.265Z,1368.00
2017-12-05T12:16:16.787Z,1372.00
2017-12-05T12:16:17.341Z,1368.00
2017-12-05T12:16:17.857Z,1372.00
2017-12-05T12:16:18.395Z,1372.00
2017-12-05T12:16:18.951Z,1368.00
2017-12-05T12:16:19.515Z,1372.00
2017-12-05T12:16:20.023Z,1372.00
2017-12-05T12:16:20.565Z,1372.00
2017-12-05T12:16:21.087Z,1372.00
2017-12-05T12:16:21.615Z,1372.00
2017-12-05T12:16:22.123Z,1376.00
2017-12-05T12:16:22.706Z,1376.00
2017-12-05T12:16:23.222Z,1376.00
2017-12-05T12:16:23.767Z,1376.00
2017-12-05T12:16:24.286Z,1376.00
2017-12-05T12:16:24.859Z,1376.00
2017-12-05T12:16:25.423Z,1376.00
2017-12-05T12:16:25.979Z,1380.00
2017-12-05T12:16:26.549Z,1380.00
2017-12-05T12:16:27.075Z,1380.00
2017-12-05T12:16:27.605Z,1380.00
2017-12-05T12:16:28.125Z,1380.00
2017-12-05T12:16:28.710Z,1384.00
2017-12-05T12:16:29.257Z,1380.00
2017-12-05T12:16:29.829Z,1384.00
2017-12-05T12:16:30.375Z,1384.00
2017-12-05T12:16:30.853Z,1388.00
2017-12-05T12:16:31.429Z,1388.00
2017-12-05T12:16:31.969Z,1388.00
2017-12-05T12:16:32.543Z,1388.00
2017-12-05T12:16:33.057Z,1388.00
2017-12-05T12:16:33.571Z,1388.00
2017-12-05T12:16:34.131Z,1392.00
2017-12-05T12:16:34.670Z,1388.00
2017-12-05T12:16:35.218Z,1388.00
2017-12-05T12:16:35.708Z,1388.00
2017-12-05T12:16:36.230Z,1392.00
2017-12-05T12:16:36.755Z,1392.00
2017-12-05T12:16:37.296Z,1396.00
2017-12-05T12:16:37.862Z,1396.00
2017-12-05T12:16:38.300Z,1392.00
2017-12-05T12:16:38.878Z,1396.00
2017-12-05T12:16:39.448Z,1396.00
2017-12-05T12:16:39.967Z,1396.00
2017-12-05T12:16:40.541Z,1396.00
2017-12-05T12:16:41.075Z,1396.00
2017-12-05T12:16:41.606Z,1400.00
2017-12-05T12:16:42.129Z,1400.00
2017-12-05T12:16:42.715Z,1396.00
2017-12-05T12:16:43.271Z,1400.00
2017-12-05T12:16:43.795Z,1400.00
2017-12-05T12:16:44.378Z,1404.00
2017-12-05T12:16:44.895Z,1400.00
2017-12-05T12:16:45.426Z,1400.00
2017-12-05T12:16:45.968Z,1404.00
2017-12-05T12:16:46.538Z,1404.00
2017-12-05T12:16:47.113Z,1404.00
2017-12-05T12:16:47.663Z,1404.00
2017-12-05T12:16:48.210Z,1404.00
2017-12-05T12:16:48.787Z,1404.00
2017-12-05T12:16:49.339Z,1408.00
2017-12-05T12:16:49.895Z,1408.00
2017-12-05T12:16:50.425Z,1408.00
2017-12-05T12:16:51.018Z,1408.00
2017-12-05T12:16:51.574Z,1408.00
2017-12-05T12:16:52.131Z,1412.00
2017-12-05T12:16:52.719Z,1408.00
2017-12-05T12:16:53.242Z,1408.00
2017-12-05T12:16:53.777Z,1408.00
2017-12-05T12:16:54.395Z,1412.00
2017-12-05T12:16:54.929Z,1412.00
2017-12-05T12:16:55.497Z,1412.00
2017-12-05T12:16:56.073Z,1412.00
2017-12-05T12:16:56.614Z,1412.00
2017-12-05T12:16:57.218Z,1412.00
2017-12-05T12:16:58.759Z,1412.00
2017-12-05T12:16:59.157Z,1416.00
2017-12-05T12:16:59.687Z,1416.00
2017-12-05T12:17:00.211Z,1416.00
2017-12-05T12:17:00.787Z,1416.00
2017-12-05T12:17:01.334Z,1420.00
2017-12-05T12:17:01.856Z,1416.00
2017-12-05T12:17:02.371Z,1416.00
2017-12-05T12:17:02.926Z,1420.00
2017-12-05T12:17:03.506Z,1420.00
2017-12-05T12:17:04.048Z,1420.00
2017-12-05T12:17:04.600Z,1420.00
2017-12-05T12:17:05.117Z,1420.00
2017-12-05T12:17:05.657Z,1424.00
2017-12-05T12:17:06.177Z,1424.00
2017-12-05T12:17:06.697Z,1424.00
2017-12-05T12:17:07.251Z,1424.00
2017-12-05T12:17:07.821Z,1424.00
2017-12-05T12:17:08.389Z,1424.00
2017-12-05T12:17:08.913Z,1424.00
2017-12-05T12:17:09.480Z,1424.00
2017-12-05T12:17:10.061Z,1428.00
2017-12-05T12:17:10.591Z,1424.00
2017-12-05T12:17:11.115Z,1428.00
2017-12-05T12:17:11.632Z,1428.00
2017-12-05T12:17:12.158Z,1432.00
2017-12-05T12:17:12.693Z,1432.00
2017-12-05T12:17:13.251Z,1428.00
2017-12-05T12:17:13.818Z,1432.00
2017-12-05T12:17:14.367Z,1428.00
2017-12-05T12:17:14.937Z,1432.00
2017-12-05T12:17:15.457Z,1432.00
2017-12-05T12:17:15.976Z,1432.00
2017-12-05T12:17:16.565Z,1436.00
2017-12-05T12:17:17.095Z,1432.00
2017-12-05T12:17:17.669Z,1436.00
2017-12-05T12:17:18.197Z,1436.00
2017-12-05T12:17:18.782Z,1436.00
2017-12-05T12:17:19.336Z,1436.00
2017-12-05T12:17:19.889Z,1436.00
2017-12-05T12:17:20.466Z,1440.00
2017-12-05T12:17:20.983Z,1436.00
2017-12-05T12:17:21.578Z,1440.00
2017-12-05T12:17:22.131Z,1440.00
2017-12-05T12:17:22.699Z,1440.00
2017-12-05T12:17:23.255Z,1440.00
2017-12-05T12:17:23.781Z,1440.00
2017-12-05T12:17:24.318Z,1444.00
2017-12-05T12:17:24.847Z,1444.00
2017-12-05T12:17:25.424Z,1444.00
2017-12-05T12:17:25.967Z,1444.00
2017-12-05T12:17:26.497Z,1444.00
2017-12-05T12:17:27.059Z,1444.00
2017-12-05T12:17:27.621Z,1444.00
2017-12-05T12:17:28.213Z,1448.00
2017-12-05T12:17:28.804Z,1444.00
2017-12-05T12:17:29.364Z,1448.00
2017-12-05T12:17:29.883Z,1448.00
2017-12-05T12:17:30.459Z,1452.00
2017-12-05T12:17:30.993Z,1448.00
2017-12-05T12:17:31.576Z,1448.00
2017-12-05T12:17:32.097Z,1452.00
2017-12-05T12:17:32.627Z,1448.00
2017-12-05T12:17:33.229Z,1452.00
2017-12-05T12:17:33.797Z,1452.00
2017-12-05T12:17:34.403Z,1452.00
2017-12-05T12:17:34.916Z,1452.00
2017-12-05T12:17:35.450Z,1452.00
2017-12-05T12:17:35.963Z,1456.00
2017-12-05T12:17:36.541Z,1456.00
2017-12-05T12:17:37.086Z,1452.00
2017-12-05T12:17:37.606Z,1456.00
2017-12-05T12:17:38.137Z,1456.00
2017-12-05T12:17:38.667Z,1456.00
2017-12-05T12:17:39.248Z,1460.00
2017-12-05T12:17:39.767Z,1456.00
2017-12-05T12:17:40.296Z,1456.00
2017-12-05T12:17:40.871Z,1460.00
2017-12-05T12:17:41.400Z,1460.00
2017-12-05T12:17:41.938Z,1460.00
2017-12-05T12:17:42.477Z,1460.00
2017-12-05T12:17:43.005Z,1460.00
2017-12-05T12:17:43.590Z,1460.00
2017-12-05T12:17:44.124Z,1464.00
2017-12-05T12:17:44.685Z,1460.00
2017-12-05T12:17:45.201Z,1460.00
2017-12-05T12:17:45.725Z,1464.00
2017-12-05T12:17:46.297Z,1464.00
2017-12-05T12:17:46.850Z,1464.00
2017-12-05T12:17:47.419Z,1464.00
2017-12-05T12:17:47.945Z,1464.00
2017-12-05T12:17:48.536Z,1468.00
2017-12-05T12:17:49.092Z,1464.00
2017-12-05T12:17:49.657Z,1464.00
2017-12-05T12:17:50.235Z,1468.00
2017-12-05T12:17:50.745Z,1468.00
2017-12-05T12:17:51.304Z,1464.00
2017-12-05T12:17:51.828Z,1468.00
2017-12-05T12:17:52.430Z,1468.00
2017-12-05T12:17:52.947Z,1468.00
2017-12-05T12:17:53.482Z,1472.00
2017-12-05T12:17:54.019Z,1468.00
2017-12-05T12:17:54.575Z,1468.00
2017-12-05T12:17:55.149Z,1472.00
2017-12-05T12:17:55.743Z,1472.00
2017-12-05T12:17:56.267Z,1472.00
2017-12-05T12:17:56.785Z,1472.00
2017-12-05T12:17:57.357Z,1472.00
2017-12-05T12:17:57.882Z,1472.00
2017-12-05T12:17:58.425Z,1472.00
2017-12-05T12:17:58.922Z,1476.00
2017-12-05T12:17:59.505Z,1472.00
2017-12-05T12:18:00.081Z,1472.00
2017-12-05T12:18:00.617Z,1476.00
2017-12-05T12:18:01.205Z,1476.00
2017-12-05T12:18:01.732Z,1476.00
2017-12-05T12:18:02.305Z,1476.00
2017-12-05T12:18:02.817Z,1476.00
2017-12-05T12:18:03.335Z,1476.00
2017-12-05T12:18:03.916Z,1476.00
2017-12-05T12:18:04.471Z,1480.00
2017-12-05T12:18:05.031Z,1476.00
2017-12-05T12:18:05.550Z,1480.00
2017-12-05T12:18:06.136Z,1480.00
2017-12-05T12:18:06.699Z,1480.00
2017-12-05T12:18:07.255Z,1480.00
2017-12-05T12:18:07.797Z,1484.00
2017-12-05T12:18:08.317Z,1480.00
2017-12-05T12:18:08.839Z,1480.00
2017-12-05T12:18:09.361Z,1484.00
2017-12-05T12:18:09.895Z,1484.00
2017-12-05T12:18:10.465Z,1484.00
2017-12-05T12:18:11.004Z,1484.00
2017-12-05T12:18:11.607Z,1484.00
2017-12-05T12:18:12.027Z,1484.00
2017-12-05T12:18:12.515Z,1484.00
2017-12-05T12:18:13.035Z,1484.00
2017-12-05T12:18:13.580Z,1488.00
2017-12-05T12:18:14.155Z,1488.00
2017-12-05T12:18:14.696Z,1488.00
2017-12-05T12:18:15.268Z,1488.00
2017-12-05T12:18:15.789Z,1488.00
2017-12-05T12:18:16.382Z,1492.00
2017-12-05T12:18:16.909Z,1492.00
2017-12-05T12:18:17.507Z,1488.00
2017-12-05T12:18:18.045Z,1492.00
2017-12-05T12:18:18.567Z,1492.00
2017-12-05T12:18:19.085Z,1496.00
2017-12-05T12:18:19.634Z,1492.00
2017-12-05T12:18:20.207Z,1492.00
2017-12-05T12:18:20.775Z,1496.00
2017-12-05T12:18:21.306Z,1496.00
2017-12-05T12:18:21.852Z,1496.00
2017-12-05T12:18:22.376Z,1496.00
2017-12-05T12:18:22.927Z,1496.00
2017-12-05T12:18:23.507Z,1496.00
2017-12-05T12:18:24.028Z,1500.00
2017-12-05T12:18:24.598Z,1500.00
2017-12-05T12:18:25.119Z,1504.00
2017-12-05T12:18:25.687Z,1500.00
2017-12-05T12:18:26.213Z,1504.00
2017-12-05T12:18:26.783Z,1500.00
2017-12-05T12:18:27.336Z,1504.00
2017-12-05T12:18:27.868Z,1504.00
2017-12-05T12:18:28.385Z,1504.00
2017-12-05T12:18:28.924Z,1508.00
2017-12-05T12:18:29.523Z,1504.00
2017-12-05T12:18:30.052Z,1508.00
2017-12-05T12:18:30.619Z,1512.00
2017-12-05T12:18:31.177Z,1508.00
2017-12-05T12:18:31.729Z,1512.00
2017-12-05T12:18:32.247Z,1512.00
2017-12-05T12:18:32.769Z,1512.00
2017-12-05T12:18:33.359Z,1516.00
2017-12-05T12:18:33.883Z,1512.00
2017-12-05T12:18:34.420Z,1516.00
2017-12-05T12:18:34.929Z,1512.00
2017-12-05T12:18:35.505Z,1516.00
2017-12-05T12:18:36.019Z,1520.00
2017-12-05T12:18:36.537Z,1516.00
2017-12-05T12:18:37.073Z,1520.00
2017-12-05T12:18:37.669Z,1524.00
2017-12-05T12:18:38.219Z,1524.00
2017-12-05T12:18:38.767Z,1520.00
2017-12-05T12:18:39.351Z,1524.00
2017-12-05T12:18:39.895Z,1524.00
2017-12-05T12:18:40.472Z,1528.00
2017-12-05T12:18:41.062Z,1528.00
2017-12-05T12:18:41.580Z,1528.00
2017-12-05T12:18:42.143Z,1528.00
2017-12-05T12:18:42.663Z,1528.00
2017-12-05T12:18:43.259Z,1528.00
2017-12-05T12:18:43.819Z,1528.00
2017-12-05T12:18:44.387Z,1532.00
2017-12-05T12:18:44.929Z,1532.00
2017-12-05T12:18:45.456Z,1532.00
2017-12-05T12:18:46.031Z,1536.00
2017-12-05T12:18:46.601Z,1536.00
2017-12-05T12:18:47.127Z,1536.00
2017-12-05T12:18:47.653Z,1536.00
2017-12-05T12:18:48.223Z,1536.00
2017-12-05T12:18:48.769Z,1536.00
2017-12-05T12:18:49.297Z,1540.00
2017-12-05T12:18:49.851Z,1540.00
2017-12-05T12:18:50.427Z,1540.00
2017-12-05T12:18:50.953Z,1544.00
2017-12-05T12:18:51.494Z,1540.00
2017-12-05T12:18:52.013Z,1544.00
2017-12-05T12:18:52.577Z,1544.00
2017-12-05T12:18:53.147Z,1544.00
2017-12-05T12:18:53.733Z,1544.00
2017-12-05T12:18:54.311Z,1548.00
2017-12-05T12:18:54.829Z,1552.00
2017-12-05T12:18:55.346Z,1548.00
2017-12-05T12:18:55.884Z,1552.00
2017-12-05T12:18:56.459Z,1552.00
2017-12-05T12:18:57.010Z,1556.00
2017-12-05T12:18:57.527Z,1552.00
2017-12-05T12:18:58.045Z,1556.00
2017-12-05T12:18:58.567Z,1552.00
2017-12-05T12:18:59.087Z,1556.00
2017-12-05T12:18:59.667Z,1560.00
2017-12-05T12:19:00.233Z,1556.00
2017-12-05T12:19:00.783Z,1560.00
2017-12-05T12:19:01.295Z,1560.00
2017-12-05T12:19:01.837Z,1560.00
2017-12-05T12:19:02.375Z,1560.00
2017-12-05T12:19:02.931Z,1564.00
2017-12-05T12:19:03.457Z,1564.00
2017-12-05T12:19:04.079Z,1564.00
2017-12-05T12:19:04.631Z,1568.00
2017-12-05T12:19:05.169Z,1568.00
2017-12-05T12:19:05.699Z,1568.00
2017-12-05T12:19:06.255Z,1568.00
2017-12-05T12:19:06.781Z,1572.00
2017-12-05T12:19:07.311Z,1568.00
2017-12-05T12:19:07.829Z,1572.00
2017-12-05T12:19:08.353Z,1572.00
2017-12-05T12:19:08.873Z,1572.00
2017-12-05T12:19:09.417Z,1576.00
2017-12-05T12:19:09.983Z,1576.00
2017-12-05T12:19:10.563Z,1576.00
2017-12-05T12:19:11.101Z,1576.00
2017-12-05T12:19:11.651Z,1580.00
2017-12-05T12:19:12.175Z,1580.00
2017-12-05T12:19:12.713Z,1580.00
2017-12-05T12:19:13.257Z,1584.00
2017-12-05T12:19:13.809Z,1580.00
2017-12-05T12:19:14.355Z,1584.00
2017-12-05T12:19:14.942Z,1584.00
2017-12-05T12:19:15.511Z,1584.00
2017-12-05T12:19:16.043Z,1584.00
2017-12-05T12:19:16.586Z,1584.00
2017-12-05T12:19:17.125Z,1588.00
2017-12-05T12:19:17.695Z,1584.00
2017-12-05T12:19:18.215Z,1588.00
2017-12-05T12:19:18.803Z,1592.00
2017-12-05T12:19:19.355Z,1588.00
2017-12-05T12:19:19.873Z,1592.00
2017-12-05T12:19:20.419Z,1592.00
2017-12-05T12:19:20.982Z,1592.00
2017-12-05T12:19:21.577Z,1592.00
2017-12-05T12:19:22.139Z,1596.00
2017-12-05T12:19:22.654Z,1596.00
2017-12-05T12:19:23.175Z,1592.00
2017-12-05T12:19:23.730Z,1600.00
2017-12-05T12:19:24.277Z,1596.00
2017-12-05T12:19:24.851Z,1596.00
2017-12-05T12:19:25.421Z,1600.00
2017-12-05T12:19:25.965Z,1600.00
2017-12-05T12:19:26.485Z,1596.00
2017-12-05T12:19:27.003Z,1596.00
2017-12-05T12:19:27.578Z,1600.00
2017-12-05T12:19:28.137Z,1600.00
2017-12-05T12:19:28.658Z,1600.00
2017-12-05T12:19:29.185Z,1600.00
2017-12-05T12:19:29.727Z,1600.00
2017-12-05T12:19:30.306Z,1600.00
2017-12-05T12:19:30.845Z,1600.00
2017-12-05T12:19:31.421Z,1600.00
2017-12-05T12:19:31.935Z,1600.00
2017-12-05T12:19:32.506Z,1600.00
2017-12-05T12:19:33.095Z,1604.00
2017-12-05T12:19:33.668Z,1604.00
2017-12-05T12:19:34.225Z,1604.00
2017-12-05T12:19:34.773Z,1604.00
2017-12-05T12:19:35.261Z,1604.00
2017-12-05T12:19:35.759Z,1604.00
2017-12-05T12:19:36.284Z,1604.00
2017-12-05T12:19:36.808Z,1604.00
2017-12-05T12:19:37.359Z,1604.00
2017-12-05T12:19:37.909Z,1604.00
2017-12-05T12:19:38.467Z,1604.00
2017-12-05T12:19:39.009Z,1604.00
2017-12-05T12:19:39.574Z,1600.00
2017-12-05T12:19:40.137Z,1604.00
2017-12-05T12:19:40.693Z,1600.00
2017-12-05T12:19:41.215Z,1600.00
2017-12-05T12:19:41.817Z,1600.00
2017-12-05T12:19:42.374Z,1600.00
2017-12-05T12:19:42.927Z,1600.00
2017-12-05T12:19:43.502Z,1600.00
2017-12-05T12:19:44.037Z,1600.00
2017-12-05T12:19:44.672Z,1600.00
2017-12-05T12:19:45.101Z,1604.00
2017-12-05T12:19:45.648Z,1604.00
2017-12-05T12:19:46.227Z,1604.00
2017-12-05T12:19:46.768Z,1600.00
2017-12-05T12:19:47.307Z,1600.00
2017-12-05T12:19:47.829Z,1600.00
2017-12-05T12:19:48.378Z,1596.00
2017-12-05T12:19:48.931Z,1600.00
2017-12-05T12:19:49.507Z,1600.00
2017-12-05T12:19:50.057Z,1600.00
2017-12-05T12:19:50.575Z,1596.00
2017-12-05T12:19:51.097Z,1600.00
2017-12-05T12:19:51.649Z,1600.00
2017-12-05T12:19:52.219Z,1600.00
2017-12-05T12:19:52.791Z,1596.00
2017-12-05T12:19:53.315Z,1596.00
2017-12-05T12:19:53.833Z,1600.00
2017-12-05T12:19:54.388Z,1592.00
2017-12-05T12:19:54.925Z,1596.00
2017-12-05T12:19:55.503Z,1596.00
2017-12-05T12:19:56.071Z,1592.00
2017-12-05T12:19:56.607Z,1592.00
2017-12-05T12:19:57.127Z,1596.00
2017-12-05T12:19:57.678Z,1592.00
2017-12-05T12:19:58.207Z,1592.00
2017-12-05T12:19:58.782Z,1592.00
2017-12-05T12:19:59.340Z,1592.00
2017-12-05T12:19:59.863Z,1592.00
2017-12-05T12:20:00.468Z,1588.00
2017-12-05T12:20:01.016Z,1592.00
2017-12-05T12:20:01.533Z,1592.00
2017-12-05T12:20:02.131Z,1588.00
2017-12-05T12:20:02.668Z,1588.00
2017-12-05T12:20:03.254Z,1588.00
2017-12-05T12:20:03.803Z,1584.00
2017-12-05T12:20:04.331Z,1588.00
2017-12-05T12:20:04.856Z,1588.00
2017-12-05T12:20:05.388Z,1588.00
2017-12-05T12:20:05.931Z,1588.00
2017-12-05T12:20:06.454Z,1584.00
2017-12-05T12:20:07.009Z,1584.00
2017-12-05T12:20:07.577Z,1584.00
2017-12-05T12:20:08.137Z,1584.00
2017-12-05T12:20:08.690Z,1584.00
2017-12-05T12:20:09.221Z,1584.00
2017-12-05T12:20:09.815Z,1588.00
2017-12-05T12:20:10.391Z,1588.00
2017-12-05T12:20:10.929Z,1584.00
2017-12-05T12:20:11.510Z,1584.00
2017-12-05T12:20:12.061Z,1584.00
2017-12-05T12:20:12.606Z,1584.00
2017-12-05T12:20:13.167Z,1584.00
2017-12-05T12:20:13.696Z,1584.00
2017-12-05T12:20:14.267Z,1584.00
2017-12-05T12:20:14.799Z,1584.00
2017-12-05T12:20:15.337Z,1584.00
2017-12-05T12:20:15.901Z,1580.00
2017-12-05T12:20:16.473Z,1580.00
2017-12-05T12:20:17.066Z,1584.00
2017-12-05T12:20:17.627Z,1580.00
2017-12-05T12:20:18.216Z,1580.00
2017-12-05T12:20:18.776Z,1580.00
2017-12-05T12:20:19.305Z,1580.00
2017-12-05T12:20:19.897Z,1580.00
2017-12-05T12:20:20.466Z,1580.00
2017-12-05T12:20:21.027Z,1580.00
2017-12-05T12:20:21.567Z,1584.00
2017-12-05T12:20:22.130Z,1584.00
2017-12-05T12:20:22.609Z,1584.00
2017-12-05T12:20:23.142Z,1584.00
2017-12-05T12:20:23.694Z,1584.00
2017-12-05T12:20:24.219Z,1580.00
2017-12-05T12:20:24.772Z,1580.00
2017-12-05T12:20:25.349Z,1584.00
2017-12-05T12:20:25.876Z,1584.00
2017-12-05T12:20:26.371Z,1584.00
2017-12-05T12:20:26.937Z,1584.00
2017-12-05T12:20:27.510Z,1584.00
2017-12-05T12:20:28.051Z,1588.00
2017-12-05T12:20:28.572Z,1584.00
2017-12-05T12:20:29.149Z,1584.00
2017-12-05T12:20:29.733Z,1588.00
2017-12-05T12:20:30.301Z,1584.00
2017-12-05T12:20:30.851Z,1584.00
2017-12-05T12:20:31.377Z,1588.00
2017-12-05T12:20:31.898Z,1588.00
2017-12-05T12:20:32.417Z,1588.00
2017-12-05T12:20:32.944Z,1588.00
2017-12-05T12:20:33.457Z,1592.00
2017-12-05T12:20:33.985Z,1588.00
2017-12-05T12:20:34.537Z,1588.00
2017-12-05T12:20:35.111Z,1592.00
2017-12-05T12:20:35.645Z,1592.00
2017-12-05T12:20:36.213Z,1592.00
2017-12-05T12:20:36.685Z,1592.00
2017-12-05T12:20:37.232Z,1592.00
2017-12-05T12:20:37.749Z,1592.00
2017-12-05T12:20:38.300Z,1592.00
2017-12-05T12:20:38.814Z,1596.00
2017-12-05T12:20:39.331Z,1592.00
2017-12-05T12:20:39.859Z,1596.00
2017-12-05T12:20:40.383Z,1596.00
2017-12-05T12:20:40.929Z,1596.00
2017-12-05T12:20:41.503Z,1596.00
2017-12-05T12:20:42.056Z,1600.00
2017-12-05T12:20:42.601Z,1596.00
2017-12-05T12:20:43.095Z,1596.00
2017-12-05T12:20:43.616Z,1600.00
2017-12-05T12:20:44.137Z,1600.00
2017-12-05T12:20:44.690Z,1600.00
2017-12-05T12:20:45.261Z,1600.00
2017-12-05T12:20:45.802Z,1600.00
2017-12-05T12:20:46.327Z,1604.00
2017-12-05T12:20:46.843Z,1604.00
2017-12-05T12:20:47.423Z,1608.00
2017-12-05T12:20:47.955Z,1604.00
2017-12-05T12:20:48.489Z,1608.00
2017-12-05T12:20:49.037Z,1608.00
2017-12-05T12:20:49.569Z,1608.00
2017-12-05T12:20:50.084Z,1612.00
2017-12-05T12:20:50.607Z,1612.00
2017-12-05T12:20:51.127Z,1612.00
2017-12-05T12:20:51.647Z,1612.00
2017-12-05T12:20:52.178Z,1616.00
2017-12-05T12:20:52.696Z,1616.00
2017-12-05T12:20:53.225Z,1616.00
2017-12-05T12:20:53.747Z,1620.00
2017-12-05T12:20:54.304Z,1620.00
2017-12-05T12:20:54.853Z,1624.00
2017-12-05T12:20:55.466Z,1620.00
2017-12-05T12:20:55.987Z,1624.00
2017-12-05T12:20:56.503Z,1624.00